sensor_id;sensor_type;location;lat;lon;timestamp;P1;durP1;ratioP1;P2;durP2;ratioP2
21521;SDS011;10922;45.572;10.002;2023-03-01T00:02:19;26.38;;;19.58;;
21521;SDS011;10922;45.572;10.002;2023-03-01T00:04:45;27.85;;;21.15;;
21521;SDS011;10922;45.572;10.002;2023-03-01T00:07:11;26.43;;;19.37;;
21521;SDS011;10922;45.572;10.002;2023-03-01T00:09:37;25.38;;;19.55;;
21521;SDS011;10922;45.572;10.002;2023-03-01T00:12:03;27.97;;;19.33;;
21521;SDS011;10922;45.572;10.002;2023-03-01T00:14:29;25.80;;;19.08;;
21521;SDS011;10922;45.572;10.002;2023-03-01T00:16:55;26.65;;;19.65;;
21521;SDS011;10922;45.572;10.002;2023-03-01T00:19:20;26.13;;;19.40;;
21521;SDS011;10922;45.572;10.002;2023-03-01T00:21:47;27.20;;;19.98;;
21521;SDS011;10922;45.572;10.002;2023-03-01T00:24:13;25.02;;;18.38;;
21521;SDS011;10922;45.572;10.002;2023-03-01T00:26:39;25.38;;;18.65;;
21521;SDS011;10922;45.572;10.002;2023-03-01T00:29:05;24.98;;;18.60;;
21521;SDS011;10922;45.572;10.002;2023-03-01T00:31:31;25.45;;;19.13;;
21521;SDS011;10922;45.572;10.002;2023-03-01T00:33:59;25.25;;;19.15;;
21521;SDS011;10922;45.572;10.002;2023-03-01T00:36:28;27.05;;;19.35;;
21521;SDS011;10922;45.572;10.002;2023-03-01T00:38:56;26.27;;;19.70;;
21521;SDS011;10922;45.572;10.002;2023-03-01T00:41:22;25.40;;;18.63;;
21521;SDS011;10922;45.572;10.002;2023-03-01T00:43:49;25.55;;;19.20;;
21521;SDS011;10922;45.572;10.002;2023-03-01T00:46:17;27.65;;;20.52;;
21521;SDS011;10922;45.572;10.002;2023-03-01T00:48:44;32.72;;;22.02;;
21521;SDS011;10922;45.572;10.002;2023-03-01T00:51:12;33.25;;;24.02;;
21521;SDS011;10922;45.572;10.002;2023-03-01T00:53:43;31.77;;;24.10;;
21521;SDS011;10922;45.572;10.002;2023-03-01T00:56:10;31.48;;;25.10;;
21521;SDS011;10922;45.572;10.002;2023-03-01T00:58:37;29.40;;;21.35;;
21521;SDS011;10922;45.572;10.002;2023-03-01T01:01:11;27.17;;;20.97;;
21521;SDS011;10922;45.572;10.002;2023-03-01T01:03:45;27.40;;;21.08;;
21521;SDS011;10922;45.572;10.002;2023-03-01T01:06:24;32.92;;;23.95;;
21521;SDS011;10922;45.572;10.002;2023-03-01T01:08:51;35.03;;;25.30;;
21521;SDS011;10922;45.572;10.002;2023-03-01T01:11:19;30.87;;;22.70;;
21521;SDS011;10922;45.572;10.002;2023-03-01T01:13:46;28.73;;;21.95;;
21521;SDS011;10922;45.572;10.002;2023-03-01T01:16:12;34.17;;;23.05;;
21521;SDS011;10922;45.572;10.002;2023-03-01T01:18:42;34.40;;;25.83;;
21521;SDS011;10922;45.572;10.002;2023-03-01T01:21:12;34.72;;;25.92;;
21521;SDS011;10922;45.572;10.002;2023-03-01T01:23:40;34.88;;;24.92;;
21521;SDS011;10922;45.572;10.002;2023-03-01T01:26:09;32.95;;;25.45;;
21521;SDS011;10922;45.572;10.002;2023-03-01T01:28:37;32.05;;;25.70;;
21521;SDS011;10922;45.572;10.002;2023-03-01T01:31:03;33.97;;;27.15;;
21521;SDS011;10922;45.572;10.002;2023-03-01T01:33:29;39.15;;;27.50;;
21521;SDS011;10922;45.572;10.002;2023-03-01T01:35:55;36.38;;;27.67;;
21521;SDS011;10922;45.572;10.002;2023-03-01T01:38:21;38.33;;;27.83;;
21521;SDS011;10922;45.572;10.002;2023-03-01T01:40:47;38.10;;;28.00;;
21521;SDS011;10922;45.572;10.002;2023-03-01T01:43:22;37.85;;;27.63;;
21521;SDS011;10922;45.572;10.002;2023-03-01T01:45:59;38.88;;;29.08;;
21521;SDS011;10922;45.572;10.002;2023-03-01T01:48:34;39.03;;;29.10;;
21521;SDS011;10922;45.572;10.002;2023-03-01T01:51:06;37.63;;;28.73;;
21521;SDS011;10922;45.572;10.002;2023-03-01T01:53:38;40.23;;;29.57;;
21521;SDS011;10922;45.572;10.002;2023-03-01T01:56:05;38.65;;;29.73;;
21521;SDS011;10922;45.572;10.002;2023-03-01T01:58:33;40.20;;;29.10;;
21521;SDS011;10922;45.572;10.002;2023-03-01T02:01:00;39.22;;;29.40;;
21521;SDS011;10922;45.572;10.002;2023-03-01T02:03:29;40.05;;;29.17;;
21521;SDS011;10922;45.572;10.002;2023-03-01T02:06:00;39.30;;;29.15;;
21521;SDS011;10922;45.572;10.002;2023-03-01T02:08:31;40.30;;;29.52;;
21521;SDS011;10922;45.572;10.002;2023-03-01T02:11:02;40.08;;;30.05;;
21521;SDS011;10922;45.572;10.002;2023-03-01T02:13:29;40.85;;;30.02;;
21521;SDS011;10922;45.572;10.002;2023-03-01T02:15:57;37.97;;;29.45;;
21521;SDS011;10922;45.572;10.002;2023-03-01T02:18:23;38.70;;;28.92;;
21521;SDS011;10922;45.572;10.002;2023-03-01T02:20:59;39.53;;;29.30;;
21521;SDS011;10922;45.572;10.002;2023-03-01T02:23:39;40.70;;;30.80;;
21521;SDS011;10922;45.572;10.002;2023-03-01T02:26:18;41.53;;;30.00;;
21521;SDS011;10922;45.572;10.002;2023-03-01T02:28:51;41.88;;;31.77;;
21521;SDS011;10922;45.572;10.002;2023-03-01T02:31:17;41.23;;;30.60;;
21521;SDS011;10922;45.572;10.002;2023-03-01T02:34:03;41.88;;;31.27;;
21521;SDS011;10922;45.572;10.002;2023-03-01T02:36:40;42.15;;;31.27;;
21521;SDS011;10922;45.572;10.002;2023-03-01T02:39:42;43.40;;;31.70;;
21521;SDS011;10922;45.572;10.002;2023-03-01T02:42:14;41.50;;;31.65;;
21521;SDS011;10922;45.572;10.002;2023-03-01T02:44:43;40.63;;;30.73;;
21521;SDS011;10922;45.572;10.002;2023-03-01T02:47:09;41.15;;;31.17;;
21521;SDS011;10922;45.572;10.002;2023-03-01T02:49:35;42.13;;;31.10;;
21521;SDS011;10922;45.572;10.002;2023-03-01T02:55:03;42.85;;;31.77;;
21521;SDS011;10922;45.572;10.002;2023-03-01T02:57:34;44.33;;;32.47;;
21521;SDS011;10922;45.572;10.002;2023-03-01T03:00:04;44.90;;;32.88;;
21521;SDS011;10922;45.572;10.002;2023-03-01T03:02:33;43.60;;;32.65;;
21521;SDS011;10922;45.572;10.002;2023-03-01T03:05:04;43.55;;;31.92;;
21521;SDS011;10922;45.572;10.002;2023-03-01T03:07:43;42.03;;;31.35;;
21521;SDS011;10922;45.572;10.002;2023-03-01T03:10:11;43.72;;;32.67;;
21521;SDS011;10922;45.572;10.002;2023-03-01T03:12:41;42.23;;;31.80;;
21521;SDS011;10922;45.572;10.002;2023-03-01T03:15:08;42.97;;;32.53;;
21521;SDS011;10922;45.572;10.002;2023-03-01T03:17:38;40.95;;;30.30;;
21521;SDS011;10922;45.572;10.002;2023-03-01T03:20:05;41.85;;;31.05;;
21521;SDS011;10922;45.572;10.002;2023-03-01T03:22:36;38.40;;;29.88;;
21521;SDS011;10922;45.572;10.002;2023-03-01T03:25:03;41.05;;;30.67;;
21521;SDS011;10922;45.572;10.002;2023-03-01T03:27:29;46.30;;;32.83;;
21521;SDS011;10922;45.572;10.002;2023-03-01T03:29:56;41.17;;;31.38;;
21521;SDS011;10922;45.572;10.002;2023-03-01T03:32:22;40.67;;;31.83;;
21521;SDS011;10922;45.572;10.002;2023-03-01T03:34:48;44.33;;;31.77;;
21521;SDS011;10922;45.572;10.002;2023-03-01T03:37:14;41.58;;;30.65;;
21521;SDS011;10922;45.572;10.002;2023-03-01T03:39:59;42.55;;;31.40;;
21521;SDS011;10922;45.572;10.002;2023-03-01T03:42:25;43.38;;;31.65;;
21521;SDS011;10922;45.572;10.002;2023-03-01T03:44:51;43.80;;;31.03;;
21521;SDS011;10922;45.572;10.002;2023-03-01T03:47:17;41.77;;;30.63;;
21521;SDS011;10922;45.572;10.002;2023-03-01T03:49:42;39.85;;;29.30;;
21521;SDS011;10922;45.572;10.002;2023-03-01T03:52:08;42.00;;;30.30;;
21521;SDS011;10922;45.572;10.002;2023-03-01T03:54:38;42.45;;;30.63;;
21521;SDS011;10922;45.572;10.002;2023-03-01T03:57:05;39.97;;;29.17;;
21521;SDS011;10922;45.572;10.002;2023-03-01T03:59:32;39.83;;;29.27;;
21521;SDS011;10922;45.572;10.002;2023-03-01T04:01:57;38.42;;;28.10;;
21521;SDS011;10922;45.572;10.002;2023-03-01T04:04:23;37.85;;;28.00;;
21521;SDS011;10922;45.572;10.002;2023-03-01T04:06:49;40.00;;;28.93;;
21521;SDS011;10922;45.572;10.002;2023-03-01T04:09:14;39.80;;;29.13;;
21521;SDS011;10922;45.572;10.002;2023-03-01T04:11:40;37.13;;;28.60;;
21521;SDS011;10922;45.572;10.002;2023-03-01T04:14:06;37.78;;;28.48;;
21521;SDS011;10922;45.572;10.002;2023-03-01T04:16:31;42.93;;;30.70;;
21521;SDS011;10922;45.572;10.002;2023-03-01T04:18:57;39.37;;;28.73;;
21521;SDS011;10922;45.572;10.002;2023-03-01T04:21:24;42.47;;;30.10;;
21521;SDS011;10922;45.572;10.002;2023-03-01T04:23:50;39.42;;;28.50;;
21521;SDS011;10922;45.572;10.002;2023-03-01T04:26:17;36.35;;;27.05;;
21521;SDS011;10922;45.572;10.002;2023-03-01T04:28:44;37.50;;;27.10;;
21521;SDS011;10922;45.572;10.002;2023-03-01T04:31:11;41.10;;;28.27;;
21521;SDS011;10922;45.572;10.002;2023-03-01T04:33:44;37.00;;;26.98;;
21521;SDS011;10922;45.572;10.002;2023-03-01T04:36:12;33.38;;;24.98;;
21521;SDS011;10922;45.572;10.002;2023-03-01T04:38:39;38.55;;;28.27;;
21521;SDS011;10922;45.572;10.002;2023-03-01T04:41:05;38.10;;;27.00;;
21521;SDS011;10922;45.572;10.002;2023-03-01T04:43:33;33.47;;;24.05;;
21521;SDS011;10922;45.572;10.002;2023-03-01T04:46:02;32.90;;;24.75;;
21521;SDS011;10922;45.572;10.002;2023-03-01T04:48:31;33.63;;;23.93;;
21521;SDS011;10922;45.572;10.002;2023-03-01T04:50:58;31.53;;;23.83;;
21521;SDS011;10922;45.572;10.002;2023-03-01T04:53:24;30.57;;;23.73;;
21521;SDS011;10922;45.572;10.002;2023-03-01T04:55:50;36.03;;;25.25;;
21521;SDS011;10922;45.572;10.002;2023-03-01T04:58:16;36.97;;;25.88;;
21521;SDS011;10922;45.572;10.002;2023-03-01T05:00:41;36.13;;;26.90;;
21521;SDS011;10922;45.572;10.002;2023-03-01T05:03:08;33.22;;;22.73;;
21521;SDS011;10922;45.572;10.002;2023-03-01T05:05:34;34.20;;;23.17;;
21521;SDS011;10922;45.572;10.002;2023-03-01T05:08:03;33.08;;;25.17;;
21521;SDS011;10922;45.572;10.002;2023-03-01T05:10:31;30.77;;;23.67;;
21521;SDS011;10922;45.572;10.002;2023-03-01T05:13:00;36.88;;;25.10;;
21521;SDS011;10922;45.572;10.002;2023-03-01T05:15:26;29.23;;;21.85;;
21521;SDS011;10922;45.572;10.002;2023-03-01T05:17:57;32.40;;;23.15;;
21521;SDS011;10922;45.572;10.002;2023-03-01T05:20:24;34.88;;;25.33;;
21521;SDS011;10922;45.572;10.002;2023-03-01T05:22:52;32.30;;;24.17;;
21521;SDS011;10922;45.572;10.002;2023-03-01T05:25:19;32.40;;;24.35;;
21521;SDS011;10922;45.572;10.002;2023-03-01T05:27:46;35.70;;;25.67;;
21521;SDS011;10922;45.572;10.002;2023-03-01T05:30:12;36.20;;;25.88;;
21521;SDS011;10922;45.572;10.002;2023-03-01T05:32:42;39.05;;;28.08;;
21521;SDS011;10922;45.572;10.002;2023-03-01T05:35:12;38.30;;;26.00;;
21521;SDS011;10922;45.572;10.002;2023-03-01T05:37:41;36.00;;;26.98;;
21521;SDS011;10922;45.572;10.002;2023-03-01T05:40:11;33.53;;;25.50;;
21521;SDS011;10922;45.572;10.002;2023-03-01T05:42:45;35.53;;;25.00;;
21521;SDS011;10922;45.572;10.002;2023-03-01T05:45:13;45.13;;;27.87;;
21521;SDS011;10922;45.572;10.002;2023-03-01T05:47:40;39.78;;;27.50;;
21521;SDS011;10922;45.572;10.002;2023-03-01T05:50:10;41.10;;;27.92;;
21521;SDS011;10922;45.572;10.002;2023-03-01T05:52:37;37.13;;;27.05;;
21521;SDS011;10922;45.572;10.002;2023-03-01T05:55:03;37.92;;;26.63;;
21521;SDS011;10922;45.572;10.002;2023-03-01T05:57:29;37.45;;;27.13;;
21521;SDS011;10922;45.572;10.002;2023-03-01T05:59:55;38.40;;;26.07;;
21521;SDS011;10922;45.572;10.002;2023-03-01T06:02:20;36.55;;;25.98;;
21521;SDS011;10922;45.572;10.002;2023-03-01T06:04:46;39.20;;;27.37;;
21521;SDS011;10922;45.572;10.002;2023-03-01T06:07:11;38.55;;;26.75;;
21521;SDS011;10922;45.572;10.002;2023-03-01T06:09:37;42.20;;;27.20;;
21521;SDS011;10922;45.572;10.002;2023-03-01T06:12:03;39.10;;;27.17;;
21521;SDS011;10922;45.572;10.002;2023-03-01T06:14:29;41.67;;;28.77;;
21521;SDS011;10922;45.572;10.002;2023-03-01T06:16:55;39.30;;;27.08;;
21521;SDS011;10922;45.572;10.002;2023-03-01T06:19:22;34.65;;;26.00;;
21521;SDS011;10922;45.572;10.002;2023-03-01T06:21:48;37.67;;;26.02;;
21521;SDS011;10922;45.572;10.002;2023-03-01T06:24:13;38.57;;;27.10;;
21521;SDS011;10922;45.572;10.002;2023-03-01T06:26:39;34.00;;;24.27;;
21521;SDS011;10922;45.572;10.002;2023-03-01T06:29:05;35.55;;;25.27;;
21521;SDS011;10922;45.572;10.002;2023-03-01T06:31:30;39.77;;;26.87;;
21521;SDS011;10922;45.572;10.002;2023-03-01T06:33:56;38.33;;;26.25;;
21521;SDS011;10922;45.572;10.002;2023-03-01T06:36:24;40.58;;;25.50;;
21521;SDS011;10922;45.572;10.002;2023-03-01T06:38:50;36.83;;;25.37;;
21521;SDS011;10922;45.572;10.002;2023-03-01T06:41:16;40.37;;;25.90;;
21521;SDS011;10922;45.572;10.002;2023-03-01T06:43:42;38.28;;;26.88;;
21521;SDS011;10922;45.572;10.002;2023-03-01T06:46:07;38.20;;;26.53;;
21521;SDS011;10922;45.572;10.002;2023-03-01T06:48:33;38.47;;;27.10;;
21521;SDS011;10922;45.572;10.002;2023-03-01T06:50:59;38.42;;;26.30;;
21521;SDS011;10922;45.572;10.002;2023-03-01T06:53:26;42.90;;;29.60;;
21521;SDS011;10922;45.572;10.002;2023-03-01T06:55:56;40.60;;;27.77;;
21521;SDS011;10922;45.572;10.002;2023-03-01T06:58:22;42.75;;;29.80;;
21521;SDS011;10922;45.572;10.002;2023-03-01T07:00:57;42.83;;;29.60;;
21521;SDS011;10922;45.572;10.002;2023-03-01T07:03:23;45.53;;;30.03;;
21521;SDS011;10922;45.572;10.002;2023-03-01T07:05:49;43.60;;;30.97;;
21521;SDS011;10922;45.572;10.002;2023-03-01T07:08:17;43.67;;;30.50;;
21521;SDS011;10922;45.572;10.002;2023-03-01T07:10:43;44.65;;;31.33;;
21521;SDS011;10922;45.572;10.002;2023-03-01T07:13:09;41.70;;;29.50;;
21521;SDS011;10922;45.572;10.002;2023-03-01T07:15:35;43.72;;;31.40;;
21521;SDS011;10922;45.572;10.002;2023-03-01T07:18:00;42.20;;;29.87;;
21521;SDS011;10922;45.572;10.002;2023-03-01T07:20:26;46.35;;;32.88;;
21521;SDS011;10922;45.572;10.002;2023-03-01T07:22:52;41.20;;;29.77;;
21521;SDS011;10922;45.572;10.002;2023-03-01T07:25:19;40.72;;;29.27;;
21521;SDS011;10922;45.572;10.002;2023-03-01T07:27:49;40.90;;;28.95;;
21521;SDS011;10922;45.572;10.002;2023-03-01T07:30:16;45.05;;;30.75;;
21521;SDS011;10922;45.572;10.002;2023-03-01T07:32:42;41.65;;;29.88;;
21521;SDS011;10922;45.572;10.002;2023-03-01T07:35:08;41.37;;;29.60;;
21521;SDS011;10922;45.572;10.002;2023-03-01T07:37:33;40.65;;;29.23;;
21521;SDS011;10922;45.572;10.002;2023-03-01T07:39:59;38.10;;;28.13;;
21521;SDS011;10922;45.572;10.002;2023-03-01T07:42:25;40.15;;;27.77;;
21521;SDS011;10922;45.572;10.002;2023-03-01T07:44:50;38.80;;;27.85;;
21521;SDS011;10922;45.572;10.002;2023-03-01T07:47:16;40.03;;;27.73;;
21521;SDS011;10922;45.572;10.002;2023-03-01T07:49:41;36.83;;;27.85;;
21521;SDS011;10922;45.572;10.002;2023-03-01T07:52:09;38.33;;;25.80;;
21521;SDS011;10922;45.572;10.002;2023-03-01T07:54:36;37.20;;;26.98;;
21521;SDS011;10922;45.572;10.002;2023-03-01T07:57:02;36.08;;;25.85;;
21521;SDS011;10922;45.572;10.002;2023-03-01T07:59:28;32.67;;;22.52;;
21521;SDS011;10922;45.572;10.002;2023-03-01T08:01:57;32.03;;;22.73;;
21521;SDS011;10922;45.572;10.002;2023-03-01T08:04:22;32.70;;;23.15;;
21521;SDS011;10922;45.572;10.002;2023-03-01T08:06:50;36.47;;;23.77;;
21521;SDS011;10922;45.572;10.002;2023-03-01T08:09:16;34.88;;;24.25;;
21521;SDS011;10922;45.572;10.002;2023-03-01T08:11:41;34.58;;;24.13;;
21521;SDS011;10922;45.572;10.002;2023-03-01T08:14:07;35.60;;;24.35;;
21521;SDS011;10922;45.572;10.002;2023-03-01T08:16:33;32.00;;;22.42;;
21521;SDS011;10922;45.572;10.002;2023-03-01T08:19:04;35.50;;;24.52;;
21521;SDS011;10922;45.572;10.002;2023-03-01T08:21:33;32.85;;;23.85;;
21521;SDS011;10922;45.572;10.002;2023-03-01T08:24:00;33.43;;;23.67;;
21521;SDS011;10922;45.572;10.002;2023-03-01T08:26:26;35.20;;;23.88;;
21521;SDS011;10922;45.572;10.002;2023-03-01T08:28:52;33.60;;;23.55;;
21521;SDS011;10922;45.572;10.002;2023-03-01T08:31:23;33.10;;;22.17;;
21521;SDS011;10922;45.572;10.002;2023-03-01T08:33:52;33.30;;;23.20;;
21521;SDS011;10922;45.572;10.002;2023-03-01T08:36:23;35.75;;;24.02;;
21521;SDS011;10922;45.572;10.002;2023-03-01T08:38:53;35.35;;;23.38;;
21521;SDS011;10922;45.572;10.002;2023-03-01T08:41:19;34.92;;;24.50;;
21521;SDS011;10922;45.572;10.002;2023-03-01T08:43:45;37.28;;;24.65;;
21521;SDS011;10922;45.572;10.002;2023-03-01T08:46:11;35.65;;;24.90;;
21521;SDS011;10922;45.572;10.002;2023-03-01T08:48:37;32.67;;;23.93;;
21521;SDS011;10922;45.572;10.002;2023-03-01T08:51:16;36.65;;;24.15;;
21521;SDS011;10922;45.572;10.002;2023-03-01T08:53:43;35.20;;;25.52;;
21521;SDS011;10922;45.572;10.002;2023-03-01T08:56:09;35.22;;;25.08;;
21521;SDS011;10922;45.572;10.002;2023-03-01T08:58:35;34.25;;;24.75;;
21521;SDS011;10922;45.572;10.002;2023-03-01T09:01:11;38.20;;;24.25;;
21521;SDS011;10922;45.572;10.002;2023-03-01T09:03:39;34.92;;;23.40;;
21521;SDS011;10922;45.572;10.002;2023-03-01T09:06:17;37.37;;;24.47;;
21521;SDS011;10922;45.572;10.002;2023-03-01T09:08:43;36.85;;;25.40;;
21521;SDS011;10922;45.572;10.002;2023-03-01T09:11:11;36.45;;;24.95;;
21521;SDS011;10922;45.572;10.002;2023-03-01T09:13:40;34.88;;;25.02;;
21521;SDS011;10922;45.572;10.002;2023-03-01T09:16:06;37.17;;;24.83;;
21521;SDS011;10922;45.572;10.002;2023-03-01T09:18:32;33.58;;;24.13;;
21521;SDS011;10922;45.572;10.002;2023-03-01T09:21:12;35.13;;;24.75;;
21521;SDS011;10922;45.572;10.002;2023-03-01T09:23:41;34.17;;;24.42;;
21521;SDS011;10922;45.572;10.002;2023-03-01T09:26:09;35.70;;;24.80;;
21521;SDS011;10922;45.572;10.002;2023-03-01T09:28:36;33.65;;;24.40;;
21521;SDS011;10922;45.572;10.002;2023-03-01T09:31:02;34.67;;;25.83;;
21521;SDS011;10922;45.572;10.002;2023-03-01T09:33:29;36.60;;;25.33;;
21521;SDS011;10922;45.572;10.002;2023-03-01T09:35:57;33.65;;;24.85;;
21521;SDS011;10922;45.572;10.002;2023-03-01T09:38:23;34.05;;;24.45;;
21521;SDS011;10922;45.572;10.002;2023-03-01T09:40:49;33.10;;;24.47;;
21521;SDS011;10922;45.572;10.002;2023-03-01T09:46:19;35.28;;;25.48;;
21521;SDS011;10922;45.572;10.002;2023-03-01T09:51:31;35.97;;;25.33;;
21521;SDS011;10922;45.572;10.002;2023-03-01T09:53:58;36.95;;;26.08;;
21521;SDS011;10922;45.572;10.002;2023-03-01T09:57:10;37.05;;;25.85;;
21521;SDS011;10922;45.572;10.002;2023-03-01T10:02:26;37.67;;;26.17;;
21521;SDS011;10922;45.572;10.002;2023-03-01T10:05:13;33.47;;;24.38;;
21521;SDS011;10922;45.572;10.002;2023-03-01T10:08:02;34.95;;;24.48;;
21521;SDS011;10922;45.572;10.002;2023-03-01T10:10:32;36.53;;;25.85;;
21521;SDS011;10922;45.572;10.002;2023-03-01T10:16:08;37.03;;;25.60;;
21521;SDS011;10922;45.572;10.002;2023-03-01T10:18:40;36.60;;;25.67;;
21521;SDS011;10922;45.572;10.002;2023-03-01T10:21:15;50.33;;;26.53;;
21521;SDS011;10922;45.572;10.002;2023-03-01T10:23:44;35.00;;;25.40;;
21521;SDS011;10922;45.572;10.002;2023-03-01T10:31:50;32.88;;;24.80;;
21521;SDS011;10922;45.572;10.002;2023-03-01T10:36:46;35.20;;;24.52;;
21521;SDS011;10922;45.572;10.002;2023-03-01T10:39:15;33.25;;;24.65;;
21521;SDS011;10922;45.572;10.002;2023-03-01T10:41:52;31.30;;;23.70;;
21521;SDS011;10922;45.572;10.002;2023-03-01T10:44:44;33.70;;;25.67;;
21521;SDS011;10922;45.572;10.002;2023-03-01T10:47:22;32.97;;;24.77;;
21521;SDS011;10922;45.572;10.002;2023-03-01T10:50:03;36.20;;;25.67;;
21521;SDS011;10922;45.572;10.002;2023-03-01T10:52:34;37.33;;;25.70;;
21521;SDS011;10922;45.572;10.002;2023-03-01T10:55:19;34.30;;;25.55;;
21521;SDS011;10922;45.572;10.002;2023-03-01T10:58:33;36.95;;;25.58;;
21521;SDS011;10922;45.572;10.002;2023-03-01T11:00:52;34.75;;;25.90;;
21521;SDS011;10922;45.572;10.002;2023-03-01T11:14:38;34.65;;;26.10;;
21521;SDS011;10922;45.572;10.002;2023-03-01T11:16:59;39.30;;;26.00;;
21521;SDS011;10922;45.572;10.002;2023-03-01T11:19:43;35.22;;;25.45;;
21521;SDS011;10922;45.572;10.002;2023-03-01T11:22:25;36.22;;;25.70;;
21521;SDS011;10922;45.572;10.002;2023-03-01T11:24:51;34.13;;;24.50;;
21521;SDS011;10922;45.572;10.002;2023-03-01T11:30:12;35.63;;;25.73;;
21521;SDS011;10922;45.572;10.002;2023-03-01T11:32:45;37.97;;;26.55;;
21521;SDS011;10922;45.572;10.002;2023-03-01T11:35:22;33.50;;;25.55;;
21521;SDS011;10922;45.572;10.002;2023-03-01T11:38:35;33.72;;;25.73;;
21521;SDS011;10922;45.572;10.002;2023-03-01T11:40:52;33.93;;;25.40;;
21521;SDS011;10922;45.572;10.002;2023-03-01T11:57:01;35.10;;;25.10;;
21521;SDS011;10922;45.572;10.002;2023-03-01T11:59:55;33.17;;;24.52;;
21521;SDS011;10922;45.572;10.002;2023-03-01T12:02:50;33.70;;;25.10;;
21521;SDS011;10922;45.572;10.002;2023-03-01T12:13:40;30.15;;;22.95;;
21521;SDS011;10922;45.572;10.002;2023-03-01T12:16:23;27.90;;;22.23;;
21521;SDS011;10922;45.572;10.002;2023-03-01T12:27:26;29.27;;;22.55;;
21521;SDS011;10922;45.572;10.002;2023-03-01T12:38:45;28.50;;;21.98;;
21521;SDS011;10922;45.572;10.002;2023-03-01T12:49:13;31.55;;;22.55;;
21521;SDS011;10922;45.572;10.002;2023-03-01T12:51:50;29.55;;;21.38;;
21521;SDS011;10922;45.572;10.002;2023-03-01T12:54:26;27.20;;;21.15;;
21521;SDS011;10922;45.572;10.002;2023-03-01T12:56:55;29.45;;;21.70;;
21521;SDS011;10922;45.572;10.002;2023-03-01T13:09:51;32.28;;;22.10;;
21521;SDS011;10922;45.572;10.002;2023-03-01T13:17:47;30.33;;;21.52;;
21521;SDS011;10922;45.572;10.002;2023-03-01T13:20:21;27.50;;;20.27;;
21521;SDS011;10922;45.572;10.002;2023-03-01T13:23:01;27.33;;;20.50;;
21521;SDS011;10922;45.572;10.002;2023-03-01T13:33:44;28.48;;;21.20;;
21521;SDS011;10922;45.572;10.002;2023-03-01T13:36:11;32.25;;;23.92;;
21521;SDS011;10922;45.572;10.002;2023-03-01T13:39:26;29.20;;;22.17;;
21521;SDS011;10922;45.572;10.002;2023-03-01T13:42:25;27.27;;;21.80;;
21521;SDS011;10922;45.572;10.002;2023-03-01T13:45:15;31.02;;;22.50;;
21521;SDS011;10922;45.572;10.002;2023-03-01T13:47:44;31.55;;;23.02;;
21521;SDS011;10922;45.572;10.002;2023-03-01T13:50:33;32.33;;;22.63;;
21521;SDS011;10922;45.572;10.002;2023-03-01T13:53:12;29.00;;;21.88;;
21521;SDS011;10922;45.572;10.002;2023-03-01T13:55:43;27.23;;;21.23;;
21521;SDS011;10922;45.572;10.002;2023-03-01T14:00:55;28.88;;;21.58;;
21521;SDS011;10922;45.572;10.002;2023-03-01T14:03:26;31.15;;;22.85;;
21521;SDS011;10922;45.572;10.002;2023-03-01T14:08:36;31.25;;;22.02;;
21521;SDS011;10922;45.572;10.002;2023-03-01T14:13:38;27.73;;;21.58;;
21521;SDS011;10922;45.572;10.002;2023-03-01T14:19:20;33.00;;;24.00;;
21521;SDS011;10922;45.572;10.002;2023-03-01T14:22:02;28.40;;;21.60;;
21521;SDS011;10922;45.572;10.002;2023-03-01T14:24:38;28.45;;;21.20;;
21521;SDS011;10922;45.572;10.002;2023-03-01T14:27:12;31.70;;;22.63;;
21521;SDS011;10922;45.572;10.002;2023-03-01T14:29:39;26.50;;;20.42;;
21521;SDS011;10922;45.572;10.002;2023-03-01T14:32:09;28.25;;;21.08;;
21521;SDS011;10922;45.572;10.002;2023-03-01T14:34:35;29.85;;;21.48;;
21521;SDS011;10922;45.572;10.002;2023-03-01T14:37:11;28.13;;;20.37;;
21521;SDS011;10922;45.572;10.002;2023-03-01T14:39:42;28.08;;;20.55;;
21521;SDS011;10922;45.572;10.002;2023-03-01T14:42:08;25.95;;;19.88;;
21521;SDS011;10922;45.572;10.002;2023-03-01T14:44:34;28.37;;;20.70;;
21521;SDS011;10922;45.572;10.002;2023-03-01T14:47:02;22.90;;;18.27;;
21521;SDS011;10922;45.572;10.002;2023-03-01T14:49:29;25.80;;;19.30;;
21521;SDS011;10922;45.572;10.002;2023-03-01T14:52:03;28.30;;;20.35;;
21521;SDS011;10922;45.572;10.002;2023-03-01T14:54:44;27.70;;;21.67;;
21521;SDS011;10922;45.572;10.002;2023-03-01T14:57:13;25.30;;;20.58;;
21521;SDS011;10922;45.572;10.002;2023-03-01T14:59:51;26.90;;;19.58;;
21521;SDS011;10922;45.572;10.002;2023-03-01T15:02:20;26.55;;;19.27;;
21521;SDS011;10922;45.572;10.002;2023-03-01T15:04:52;27.30;;;19.43;;
21521;SDS011;10922;45.572;10.002;2023-03-01T15:07:22;24.02;;;18.80;;
21521;SDS011;10922;45.572;10.002;2023-03-01T15:09:54;24.15;;;18.73;;
21521;SDS011;10922;45.572;10.002;2023-03-01T15:15:00;26.40;;;19.30;;
21521;SDS011;10922;45.572;10.002;2023-03-01T15:17:36;29.40;;;20.27;;
21521;SDS011;10922;45.572;10.002;2023-03-01T15:20:13;26.52;;;20.05;;
21521;SDS011;10922;45.572;10.002;2023-03-01T15:22:45;28.08;;;19.75;;
21521;SDS011;10922;45.572;10.002;2023-03-01T15:25:15;25.83;;;19.23;;
21521;SDS011;10922;45.572;10.002;2023-03-01T15:27:46;28.45;;;19.67;;
21521;SDS011;10922;45.572;10.002;2023-03-01T15:35:44;23.10;;;17.33;;
21521;SDS011;10922;45.572;10.002;2023-03-01T15:43:48;23.88;;;17.27;;
21521;SDS011;10922;45.572;10.002;2023-03-01T15:46:20;23.85;;;18.05;;
21521;SDS011;10922;45.572;10.002;2023-03-01T15:51:55;27.95;;;20.13;;
21521;SDS011;10922;45.572;10.002;2023-03-01T15:54:22;26.60;;;20.37;;
21521;SDS011;10922;45.572;10.002;2023-03-01T15:56:50;28.00;;;20.63;;
21521;SDS011;10922;45.572;10.002;2023-03-01T15:59:16;31.50;;;20.87;;
21521;SDS011;10922;45.572;10.002;2023-03-01T16:01:42;30.13;;;20.90;;
21521;SDS011;10922;45.572;10.002;2023-03-01T16:04:09;26.08;;;17.92;;
21521;SDS011;10922;45.572;10.002;2023-03-01T16:06:45;22.20;;;16.33;;
21521;SDS011;10922;45.572;10.002;2023-03-01T16:09:19;22.90;;;16.90;;
21521;SDS011;10922;45.572;10.002;2023-03-01T16:11:46;22.92;;;16.63;;
21521;SDS011;10922;45.572;10.002;2023-03-01T16:14:12;21.08;;;16.00;;
21521;SDS011;10922;45.572;10.002;2023-03-01T16:16:37;21.03;;;16.10;;
21521;SDS011;10922;45.572;10.002;2023-03-01T16:19:03;18.03;;;14.90;;
21521;SDS011;10922;45.572;10.002;2023-03-01T16:21:28;21.02;;;16.13;;
21521;SDS011;10922;45.572;10.002;2023-03-01T16:23:54;23.13;;;16.30;;
21521;SDS011;10922;45.572;10.002;2023-03-01T16:26:20;24.33;;;16.67;;
21521;SDS011;10922;45.572;10.002;2023-03-01T16:28:45;24.87;;;17.40;;
21521;SDS011;10922;45.572;10.002;2023-03-01T16:31:11;25.25;;;17.75;;
21521;SDS011;10922;45.572;10.002;2023-03-01T16:33:42;22.13;;;16.25;;
21521;SDS011;10922;45.572;10.002;2023-03-01T16:36:14;25.02;;;17.85;;
21521;SDS011;10922;45.572;10.002;2023-03-01T16:38:41;22.75;;;16.65;;
21521;SDS011;10922;45.572;10.002;2023-03-01T16:41:11;21.37;;;16.50;;